sensor_id;sensor_type;location;lat;lon;timestamp;pressure;altitude;pressure_sealevel;temperature;humidity
54666;BME280;40566;50.006;36.180;2022-12-10T00:00:31;99691.16;;;2.74;81.13
54666;BME280;40566;50.006;36.180;2022-12-10T00:05:34;99689.50;;;2.86;81.01
54666;BME280;40566;50.006;36.180;2022-12-10T00:10:39;99698.88;;;2.87;80.89
54666;BME280;40566;50.006;36.180;2022-12-10T00:15:40;99704.84;;;2.89;80.90
54666;BME280;40566;50.006;36.180;2022-12-10T00:20:40;99704.84;;;2.95;80.93
54666;BME280;40566;50.006;36.180;2022-12-10T00:25:41;99706.56;;;2.96;80.65
54666;BME280;40566;50.006;36.180;2022-12-10T00:30:41;99706.56;;;2.96;80.90
54666;BME280;40566;50.006;36.180;2022-12-10T00:35:42;99715.06;;;2.98;81.11
54666;BME280;40566;50.006;36.180;2022-12-10T00:40:42;99709.13;;;3.01;80.88
54666;BME280;40566;50.006;36.180;2022-12-10T00:45:43;99712.53;;;3.01;80.87
54666;BME280;40566;50.006;36.180;2022-12-10T00:50:43;99701.47;;;3.02;80.93
54666;BME280;40566;50.006;36.180;2022-12-10T00:55:44;99704.03;;;3.01;80.93
54666;BME280;40566;50.006;36.180;2022-12-10T01:00:45;99689.53;;;3.01;80.86
54666;BME280;40566;50.006;36.180;2022-12-10T01:05:45;99691.25;;;3.04;80.70
54666;BME280;40566;50.006;36.180;2022-12-10T01:10:52;99686.97;;;3.01;81.05
54666;BME280;40566;50.006;36.180;2022-12-10T01:15:53;99695.50;;;2.98;81.05
54666;BME280;40566;50.006;36.180;2022-12-10T01:20:54;99677.59;;;3.00;81.08
54666;BME280;40566;50.006;36.180;2022-12-10T01:25:59;99684.44;;;3.06;81.12
54666;BME280;40566;50.006;36.180;2022-12-10T01:31:02;99701.50;;;3.14;81.04
54666;BME280;40566;50.006;36.180;2022-12-10T01:36:06;99687.00;;;3.09;81.03
54666;BME280;40566;50.006;36.180;2022-12-10T01:41:10;99676.78;;;3.09;81.30
54666;BME280;40566;50.006;36.180;2022-12-10T01:46:13;99677.63;;;3.06;81.11
54666;BME280;40566;50.006;36.180;2022-12-10T01:51:14;99673.38;;;3.07;81.10
54666;BME280;40566;50.006;36.180;2022-12-10T01:56:16;99673.38;;;3.08;81.22
54666;BME280;40566;50.006;36.180;2022-12-10T02:12:36;99663.16;;;3.11;81.21
54666;BME280;40566;50.006;36.180;2022-12-10T02:17:42;99669.09;;;3.13;81.49
54666;BME280;40566;50.006;36.180;2022-12-10T02:22:48;99654.63;;;3.11;81.64
54666;BME280;40566;50.006;36.180;2022-12-10T02:32:50;99650.38;;;3.11;81.46
54666;BME280;40566;50.006;36.180;2022-12-10T02:37:55;99636.75;;;3.12;81.80
54666;BME280;40566;50.006;36.180;2022-12-10T02:42:56;99630.78;;;3.12;81.64
54666;BME280;40566;50.006;36.180;2022-12-10T02:47:59;99633.34;;;3.18;81.63
54666;BME280;40566;50.006;36.180;2022-12-10T02:53:00;99624.81;;;3.19;81.71
54666;BME280;40566;50.006;36.180;2022-12-10T02:58:12;99616.31;;;3.18;81.51
54666;BME280;40566;50.006;36.180;2022-12-10T03:08:26;99611.19;;;3.17;81.70
54666;BME280;40566;50.006;36.180;2022-12-10T03:13:32;99612.88;;;3.20;81.64
54666;BME280;40566;50.006;36.180;2022-12-10T03:18:37;99614.59;;;3.24;81.61
54666;BME280;40566;50.006;36.180;2022-12-10T03:23:40;99606.91;;;3.24;81.59
54666;BME280;40566;50.006;36.180;2022-12-10T03:28:50;99613.75;;;3.20;82.20
54666;BME280;40566;50.006;36.180;2022-12-10T03:33:51;99614.59;;;3.10;81.71
54666;BME280;40566;50.006;36.180;2022-12-10T03:38:53;99608.66;;;3.20;81.86
54666;BME280;40566;50.006;36.180;2022-12-10T03:43:56;99613.75;;;3.20;81.79
54666;BME280;40566;50.006;36.180;2022-12-10T03:48:58;99623.13;;;3.23;81.80
54666;BME280;40566;50.006;36.180;2022-12-10T03:53:59;99627.38;;;3.21;81.85
54666;BME280;40566;50.006;36.180;2022-12-10T03:59:00;99635.03;;;3.24;81.92
54666;BME280;40566;50.006;36.180;2022-12-10T04:04:00;99623.09;;;3.26;81.90
54666;BME280;40566;50.006;36.180;2022-12-10T04:09:02;99631.63;;;3.28;81.82
54666;BME280;40566;50.006;36.180;2022-12-10T04:14:03;99629.94;;;3.30;82.12
54666;BME280;40566;50.006;36.180;2022-12-10T04:19:22;99630.81;;;3.32;82.00
54666;BME280;40566;50.006;36.180;2022-12-10T04:24:28;99621.41;;;3.31;81.84
54666;BME280;40566;50.006;36.180;2022-12-10T04:29:48;99630.81;;;3.32;81.96
54666;BME280;40566;50.006;36.180;2022-12-10T04:34:49;99627.38;;;3.31;82.09
54666;BME280;40566;50.006;36.180;2022-12-10T04:39:50;99632.50;;;3.34;82.06
54666;BME280;40566;50.006;36.180;2022-12-10T04:44:51;99627.38;;;3.33;81.93
54666;BME280;40566;50.006;36.180;2022-12-10T04:49:52;99628.25;;;3.32;82.14
54666;BME280;40566;50.006;36.180;2022-12-10T04:54:52;99627.41;;;3.30;82.26
54666;BME280;40566;50.006;36.180;2022-12-10T04:59:53;99622.28;;;3.28;82.33
54666;BME280;40566;50.006;36.180;2022-12-10T05:04:53;99621.41;;;3.29;82.32
54666;BME280;40566;50.006;36.180;2022-12-10T05:09:54;99617.16;;;3.30;82.30
54666;BME280;40566;50.006;36.180;2022-12-10T05:14:54;99616.31;;;3.31;82.26
54666;BME280;40566;50.006;36.180;2022-12-10T05:19:55;99618.88;;;3.34;82.26
54666;BME280;40566;50.006;36.180;2022-12-10T05:24:55;99632.50;;;3.41;82.26
54666;BME280;40566;50.006;36.180;2022-12-10T05:29:56;99631.66;;;3.40;82.23
54666;BME280;40566;50.006;36.180;2022-12-10T05:34:57;99619.72;;;3.34;82.17
54666;BME280;40566;50.006;36.180;2022-12-10T05:39:58;99641.00;;;3.41;82.24
54666;BME280;40566;50.006;36.180;2022-12-10T05:44:58;99645.25;;;3.39;82.42
54666;BME280;40566;50.006;36.180;2022-12-10T05:49:59;99647.84;;;3.44;82.32
54666;BME280;40566;50.006;36.180;2022-12-10T05:55:00;99640.16;;;3.48;82.37
54666;BME280;40566;50.006;36.180;2022-12-10T06:00:00;99642.69;;;3.45;82.29
54666;BME280;40566;50.006;36.180;2022-12-10T06:05:01;99652.94;;;3.47;82.40
54666;BME280;40566;50.006;36.180;2022-12-10T06:10:01;99646.09;;;3.53;82.52
54666;BME280;40566;50.006;36.180;2022-12-10T06:15:03;99648.69;;;3.60;82.22
54666;BME280;40566;50.006;36.180;2022-12-10T06:20:04;99640.16;;;3.57;82.24
54666;BME280;40566;50.006;36.180;2022-12-10T06:25:05;99645.25;;;3.59;82.17
54666;BME280;40566;50.006;36.180;2022-12-10T06:30:07;99652.09;;;3.55;82.66
54666;BME280;40566;50.006;36.180;2022-12-10T06:35:08;99652.09;;;3.62;82.59
54666;BME280;40566;50.006;36.180;2022-12-10T06:40:09;99645.25;;;3.64;82.60
54666;BME280;40566;50.006;36.180;2022-12-10T06:45:10;99653.78;;;3.66;82.59
54666;BME280;40566;50.006;36.180;2022-12-10T06:50:11;99650.38;;;3.70;82.51
54666;BME280;40566;50.006;36.180;2022-12-10T06:55:11;99651.22;;;3.66;82.70
54666;BME280;40566;50.006;36.180;2022-12-10T07:00:12;99658.88;;;3.72;82.54
54666;BME280;40566;50.006;36.180;2022-12-10T07:05:13;99648.66;;;3.81;82.26
54666;BME280;40566;50.006;36.180;2022-12-10T07:10:14;99648.66;;;3.81;82.33
54666;BME280;40566;50.006;36.180;2022-12-10T07:15:15;99640.09;;;3.82;82.31
54666;BME280;40566;50.006;36.180;2022-12-10T07:20:16;99639.25;;;3.88;82.21
54666;BME280;40566;50.006;36.180;2022-12-10T07:25:16;99635.81;;;3.90;81.95
54666;BME280;40566;50.006;36.180;2022-12-10T07:30:17;99647.75;;;3.97;82.11
54666;BME280;40566;50.006;36.180;2022-12-10T07:35:18;99653.69;;;4.06;82.11
54666;BME280;40566;50.006;36.180;2022-12-10T07:40:18;99643.44;;;4.12;81.99
54666;BME280;40566;50.006;36.180;2022-12-10T07:45:19;99643.44;;;4.15;81.90
54666;BME280;40566;50.006;36.180;2022-12-10T07:50:19;99641.72;;;4.14;81.84
54666;BME280;40566;50.006;36.180;2022-12-10T07:55:20;99640.00;;;4.17;81.81
54666;BME280;40566;50.006;36.180;2022-12-10T08:00:21;99633.16;;;4.18;81.79
54666;BME280;40566;50.006;36.180;2022-12-10T08:05:21;99632.31;;;4.21;81.95
54666;BME280;40566;50.006;36.180;2022-12-10T08:10:22;99624.66;;;4.16;82.11
54666;BME280;40566;50.006;36.180;2022-12-10T08:15:22;99615.28;;;4.13;82.24
54666;BME280;40566;50.006;36.180;2022-12-10T08:20:24;99611.84;;;4.16;82.20
54666;BME280;40566;50.006;36.180;2022-12-10T08:25:24;99594.78;;;4.21;82.05
54666;BME280;40566;50.006;36.180;2022-12-10T08:30:25;99605.00;;;4.21;82.11
54666;BME280;40566;50.006;36.180;2022-12-10T08:35:25;99604.09;;;4.31;81.94
54666;BME280;40566;50.006;36.180;2022-12-10T08:40:26;99586.16;;;4.37;81.87
54666;BME280;40566;50.006;36.180;2022-12-10T08:45:27;99578.47;;;4.41;81.75
54666;BME280;40566;50.006;36.180;2022-12-10T08:50:28;99568.19;;;4.47;81.90
54666;BME280;40566;50.006;36.180;2022-12-10T08:55:29;99545.94;;;4.55;81.63
54666;BME280;40566;50.006;36.180;2022-12-10T09:00:29;99549.31;;;4.60;81.82
54666;BME280;40566;50.006;36.180;2022-12-10T09:05:30;99549.22;;;4.72;81.61
54666;BME280;40566;50.006;36.180;2022-12-10T09:10:30;99542.38;;;4.76;81.43
54666;BME280;40566;50.006;36.180;2022-12-10T09:15:31;99537.22;;;4.79;81.53
54666;BME280;40566;50.006;36.180;2022-12-10T09:20:32;99542.28;;;4.85;81.62
54666;BME280;40566;50.006;36.180;2022-12-10T09:25:33;99523.50;;;4.86;81.64
54666;BME280;40566;50.006;36.180;2022-12-10T09:30:33;99514.94;;;4.86;81.67
54666;BME280;40566;50.006;36.180;2022-12-10T09:35:34;99502.94;;;4.91;81.84
54666;BME280;40566;50.006;36.180;2022-12-10T09:40:43;99485.84;;;4.96;81.55
54666;BME280;40566;50.006;36.180;2022-12-10T09:51:31;99472.13;;;4.97;81.86
54666;BME280;40566;50.006;36.180;2022-12-10T09:56:36;99440.56;;;4.93;81.90
54666;BME280;40566;50.006;36.180;2022-12-10T10:01:40;99452.50;;;4.96;81.92
54666;BME280;40566;50.006;36.180;2022-12-10T10:06:41;99441.38;;;4.99;81.63
54666;BME280;40566;50.006;36.180;2022-12-10T10:11:42;99434.56;;;4.96;81.79
54666;BME280;40566;50.006;36.180;2022-12-10T10:16:47;99427.72;;;4.95;82.05
54666;BME280;40566;50.006;36.180;2022-12-10T10:21:50;99403.00;;;4.91;82.09
54666;BME280;40566;50.006;36.180;2022-12-10T10:26:56;99410.63;;;4.95;82.10
54666;BME280;40566;50.006;36.180;2022-12-10T10:32:18;99409.88;;;4.86;82.17
54666;BME280;40566;50.006;36.180;2022-12-10T10:37:28;99409.03;;;4.87;82.37
54666;BME280;40566;50.006;36.180;2022-12-10T10:42:39;99403.84;;;4.93;82.20
54666;BME280;40566;50.006;36.180;2022-12-10T10:47:40;99407.28;;;4.92;82.31
54666;BME280;40566;50.006;36.180;2022-12-10T10:52:41;99415.88;;;4.88;82.43
54666;BME280;40566;50.006;36.180;2022-12-10T10:57:41;99415.03;;;4.83;82.54
54666;BME280;40566;50.006;36.180;2022-12-10T11:02:43;99417.63;;;4.80;82.61
54666;BME280;40566;50.006;36.180;2022-12-10T11:07:43;99422.72;;;4.83;82.73
54666;BME280;40566;50.006;36.180;2022-12-10T11:12:57;99422.66;;;4.89;82.51
54666;BME280;40566;50.006;36.180;2022-12-10T11:18:02;99417.50;;;4.93;82.53
54666;BME280;40566;50.006;36.180;2022-12-10T11:23:09;99391.00;;;4.93;82.45
54666;BME280;40566;50.006;36.180;2022-12-10T11:28:19;99382.56;;;4.86;82.66
54666;BME280;40566;50.006;36.180;2022-12-10T11:33:54;99369.78;;;4.82;82.68
54666;BME280;40566;50.006;36.180;2022-12-10T11:39:21;99368.09;;;4.79;82.84
54666;BME280;40566;50.006;36.180;2022-12-10T11:50:26;99348.44;;;4.81;82.96
54666;BME280;40566;50.006;36.180;2022-12-10T12:00:26;99349.28;;;4.82;83.05
54666;BME280;40566;50.006;36.180;2022-12-10T12:15:59;99326.25;;;4.79;83.34
54666;BME280;40566;50.006;36.180;2022-12-10T12:21:04;99328.81;;;4.79;83.37
54666;BME280;40566;50.006;36.180;2022-12-10T12:26:15;99304.09;;;4.76;83.48
54666;BME280;40566;50.006;36.180;2022-12-10T12:31:20;99310.06;;;4.78;83.49
54666;BME280;40566;50.006;36.180;2022-12-10T12:36:26;99292.06;;;4.80;83.43
54666;BME280;40566;50.006;36.180;2022-12-10T12:46:46;99292.06;;;4.81;83.81
54666;BME280;40566;50.006;36.180;2022-12-10T12:52:20;99298.00;;;4.86;83.46
54666;BME280;40566;50.006;36.180;2022-12-10T12:57:52;99283.44;;;4.88;83.67
54666;BME280;40566;50.006;36.180;2022-12-10T13:08:29;99285.00;;;5.00;83.59
54666;BME280;40566;50.006;36.180;2022-12-10T13:13:36;99261.94;;;5.02;83.54
54666;BME280;40566;50.006;36.180;2022-12-10T13:18:38;99264.44;;;5.06;83.69
54666;BME280;40566;50.006;36.180;2022-12-10T13:24:07;99249.03;;;5.08;83.84
54666;BME280;40566;50.006;36.180;2022-12-10T13:29:23;99238.72;;;5.09;83.76
54666;BME280;40566;50.006;36.180;2022-12-10T13:34:34;99244.69;;;5.11;83.94
54666;BME280;40566;50.006;36.180;2022-12-10T13:39:46;99252.38;;;5.11;84.23
54666;BME280;40566;50.006;36.180;2022-12-10T13:49:59;99242.91;;;5.16;84.16
54666;BME280;40566;50.006;36.180;2022-12-10T14:10:57;99235.00;;;5.33;84.31
54666;BME280;40566;50.006;36.180;2022-12-10T14:16:00;99228.97;;;5.36;84.29
54666;BME280;40566;50.006;36.180;2022-12-10T14:21:05;99231.50;;;5.38;84.39
54666;BME280;40566;50.006;36.180;2022-12-10T14:26:12;99211.81;;;5.40;84.58
54666;BME280;40566;50.006;36.180;2022-12-10T14:31:16;99216.94;;;5.41;84.58
54666;BME280;40566;50.006;36.180;2022-12-10T14:36:35;99207.44;;;5.46;84.50
54666;BME280;40566;50.006;36.180;2022-12-10T14:41:37;99198.81;;;5.49;84.77
54666;BME280;40566;50.006;36.180;2022-12-10T14:46:39;99197.06;;;5.52;84.85
54666;BME280;40566;50.006;36.180;2022-12-10T14:51:40;99200.34;;;5.61;84.75
54666;BME280;40566;50.006;36.180;2022-12-10T14:56:41;99193.44;;;5.64;84.97
54666;BME280;40566;50.006;36.180;2022-12-10T15:01:46;99190.78;;;5.70;84.91
54666;BME280;40566;50.006;36.180;2022-12-10T15:06:48;99179.69;;;5.70;84.95
54666;BME280;40566;50.006;36.180;2022-12-10T15:11:57;99179.56;;;5.76;84.98
54666;BME280;40566;50.006;36.180;2022-12-10T15:16:58;99176.13;;;5.79;84.99
54666;BME280;40566;50.006;36.180;2022-12-10T15:22:21;99175.97;;;5.86;85.08
54666;BME280;40566;50.006;36.180;2022-12-10T15:27:25;99164.81;;;5.89;85.07
54666;BME280;40566;50.006;36.180;2022-12-10T15:32:28;99161.34;;;5.91;85.22
54666;BME280;40566;50.006;36.180;2022-12-10T15:37:34;99156.19;;;5.91;85.44
54666;BME280;40566;50.006;36.180;2022-12-10T15:42:44;99151.03;;;5.94;85.34
54666;BME280;40566;50.006;36.180;2022-12-10T15:47:45;99154.47;;;5.95;85.43
54666;BME280;40566;50.006;36.180;2022-12-10T15:52:45;99155.31;;;5.95;85.37
54666;BME280;40566;50.006;36.180;2022-12-10T15:57:46;99150.13;;;5.99;85.39
54666;BME280;40566;50.006;36.180;2022-12-10T16:03:02;99150.97;;;5.99;85.55
54666;BME280;40566;50.006;36.180;2022-12-10T16:13:28;99147.44;;;6.05;85.52
54666;BME280;40566;50.006;36.180;2022-12-10T16:18:31;99155.03;;;6.09;85.70
54666;BME280;40566;50.006;36.180;2022-12-10T16:23:32;99149.88;;;6.12;85.75
54666;BME280;40566;50.006;36.180;2022-12-10T16:28:33;99155.75;;;6.16;85.66
54666;BME280;40566;50.006;36.180;2022-12-10T16:33:34;99166.81;;;6.21;85.79
54666;BME280;40566;50.006;36.180;2022-12-10T16:38:34;99163.28;;;6.25;85.79
54666;BME280;40566;50.006;36.180;2022-12-10T16:43:35;99145.25;;;6.28;85.77
54666;BME280;40566;50.006;36.180;2022-12-10T16:48:35;99148.56;;;6.33;85.74
54666;BME280;40566;50.006;36.180;2022-12-10T16:53:36;99143.41;;;6.35;85.91
54666;BME280;40566;50.006;36.180;2022-12-10T16:58:37;99143.31;;;6.40;85.76
54666;BME280;40566;50.006;36.180;2022-12-10T17:03:37;99132.97;;;6.43;85.78
54666;BME280;40566;50.006;36.180;2022-12-10T17:08:38;99127.81;;;6.44;85.97
54666;BME280;40566;50.006;36.180;2022-12-10T17:13:40;99117.38;;;6.52;85.87
54666;BME280;40566;50.006;36.180;2022-12-10T17:18:41;99119.94;;;6.52;85.93
54666;BME280;40566;50.006;36.180;2022-12-10T17:23:42;99121.56;;;6.56;86.03
54666;BME280;40566;50.006;36.180;2022-12-10T17:28:42;99102.78;;;6.54;85.95
54666;BME280;40566;50.006;36.180;2022-12-10T17:33:43;99112.88;;;6.62;85.97
54666;BME280;40566;50.006;36.180;2022-12-10T17:38:43;99106.81;;;6.64;86.15
54666;BME280;40566;50.006;36.180;2022-12-10T17:43:44;99104.16;;;6.69;86.25
54666;BME280;40566;50.006;36.180;2022-12-10T17:48:45;99101.50;;;6.73;86.06
54666;BME280;40566;50.006;36.180;2022-12-10T17:53:45;99094.59;;;6.75;86.14
54666;BME280;40566;50.006;36.180;2022-12-10T17:58:47;99084.22;;;6.79;86.25
54666;BME280;40566;50.006;36.180;2022-12-10T18:03:48;99094.44;;;6.82;86.22
54666;BME280;40566;50.006;36.180;2022-12-10T18:08:49;99094.41;;;6.83;86.29
54666;BME280;40566;50.006;36.180;2022-12-10T18:13:50;99092.59;;;6.87;86.37
54666;BME280;40566;50.006;36.180;2022-12-10T18:18:51;99082.28;;;6.88;86.38
54666;BME280;40566;50.006;36.180;2022-12-10T18:23:52;99081.41;;;6.89;86.36
54666;BME280;40566;50.006;36.180;2022-12-10T18:28:55;99076.19;;;6.92;86.45
54666;BME280;40566;50.006;36.180;2022-12-10T18:34:01;99083.03;;;6.93;86.49
54666;BME280;40566;50.006;36.180;2022-12-10T18:39:12;99079.53;;;6.96;86.73
54666;BME280;40566;50.006;36.180;2022-12-10T18:44:14;99075.16;;;7.00;86.53
54666;BME280;40566;50.006;36.180;2022-12-10T18:49:18;99088.75;;;7.05;86.45
54666;BME280;40566;50.006;36.180;2022-12-10T18:54:20;99090.41;;;7.07;86.62
54666;BME280;40566;50.006;36.180;2022-12-10T18:59:20;99083.50;;;7.09;86.60
54666;BME280;40566;50.006;36.180;2022-12-10T19:04:21;99098.00;;;7.12;86.69
54666;BME280;40566;50.006;36.180;2022-12-10T19:09:21;99097.09;;;7.14;86.66
54666;BME280;40566;50.006;36.180;2022-12-10T19:14:22;99103.81;;;7.20;86.75
54666;BME280;40566;50.006;36.180;2022-12-10T19:19:23;99105.47;;;7.23;86.72
54666;BME280;40566;50.006;36.180;2022-12-10T19:24:24;99093.44;;;7.25;86.57
54666;BME280;40566;50.006;36.180;2022-12-10T19:29:24;99092.53;;;7.26;86.53
54666;BME280;40566;50.006;36.180;2022-12-10T19:34:25;99087.38;;;7.26;86.63
54666;BME280;40566;50.006;36.180;2022-12-10T19:39:27;99088.19;;;7.28;86.68
54666;BME280;40566;50.006;36.180;2022-12-10T19:44:29;99089.03;;;7.28;86.78
54666;BME280;40566;50.006;36.180;2022-12-10T19:49:31;99093.31;;;7.29;86.81
54666;BME280;40566;50.006;36.180;2022-12-10T19:54:32;99101.81;;;7.31;86.81
54666;BME280;40566;50.006;36.180;2022-12-10T19:59:32;99110.47;;;7.29;86.80
54666;BME280;40566;50.006;36.180;2022-12-10T20:04:33;99092.50;;;7.27;86.87
54666;BME280;40566;50.006;36.180;2022-12-10T20:09:34;99089.94;;;7.26;86.82
54666;BME280;40566;50.006;36.180;2022-12-10T20:14:34;99107.91;;;7.29;86.80
54666;BME280;40566;50.006;36.180;2022-12-10T20:19:35;99107.91;;;7.29;86.76
54666;BME280;40566;50.006;36.180;2022-12-10T20:24:36;99113.88;;;7.29;86.84
54666;BME280;40566;50.006;36.180;2022-12-10T20:29:36;99109.53;;;7.31;86.82
54666;BME280;40566;50.006;36.180;2022-12-10T20:34:37;99110.38;;;7.32;86.83
54666;BME280;40566;50.006;36.180;2022-12-10T20:39:38;99115.53;;;7.32;86.98
54666;BME280;40566;50.006;36.180;2022-12-10T20:44:38;99117.16;;;7.34;86.94
54666;BME280;40566;50.006;36.180;2022-12-10T20:49:40;99112.91;;;7.33;86.87
54666;BME280;40566;50.006;36.180;2022-12-10T20:54:41;99102.63;;;7.33;86.87
54666;BME280;40566;50.006;36.180;2022-12-10T20:59:41;99100.09;;;7.32;87.05
54666;BME280;40566;50.006;36.180;2022-12-10T21:04:42;99093.28;;;7.31;87.12
54666;BME280;40566;50.006;36.180;2022-12-10T21:09:43;99093.28;;;7.31;86.90
54666;BME280;40566;50.006;36.180;2022-12-10T21:14:44;99101.03;;;7.29;87.04
54666;BME280;40566;50.006;36.180;2022-12-10T21:19:45;99092.41;;;7.30;86.95
54666;BME280;40566;50.006;36.180;2022-12-10T21:24:46;99097.50;;;7.32;86.89
54666;BME280;40566;50.006;36.180;2022-12-10T21:29:47;99096.66;;;7.33;86.87
54666;BME280;40566;50.006;36.180;2022-12-10T21:34:48;99094.94;;;7.32;86.91
54666;BME280;40566;50.006;36.180;2022-12-10T21:39:49;99084.75;;;7.29;86.94
54666;BME280;40566;50.006;36.180;2022-12-10T21:44:53;99081.28;;;7.30;87.04
54666;BME280;40566;50.006;36.180;2022-12-10T21:49:53;99086.38;;;7.31;87.05
54666;BME280;40566;50.006;36.180;2022-12-10T21:54:54;99087.31;;;7.29;87.04
54666;BME280;40566;50.006;36.180;2022-12-10T21:59:55;99082.25;;;7.26;87.30
54666;BME280;40566;50.006;36.180;2022-12-10T22:04:55;99076.22;;;7.27;87.14
54666;BME280;40566;50.006;36.180;2022-12-10T22:09:57;99078.00;;;7.25;87.08
54666;BME280;40566;50.006;36.180;2022-12-10T22:14:58;99080.50;;;7.26;87.11
54666;BME280;40566;50.006;36.180;2022-12-10T22:19:59;99098.56;;;7.25;87.25
54666;BME280;40566;50.006;36.180;2022-12-10T22:25:00;99094.25;;;7.25;87.14
54666;BME280;40566;50.006;36.180;2022-12-10T22:30:05;99101.09;;;7.26;87.10
54666;BME280;40566;50.006;36.180;2022-12-10T22:35:06;99109.56;;;7.30;87.16
54666;BME280;40566;50.006;36.180;2022-12-10T22:40:07;99102.66;;;7.32;87.12
54666;BME280;40566;50.006;36.180;2022-12-10T22:45:09;99101.78;;;7.33;87.04
54666;BME280;40566;50.006;36.180;2022-12-10T22:50:11;99102.66;;;7.32;86.92
54666;BME280;40566;50.006;36.180;2022-12-10T22:55:11;99107.84;;;7.30;87.03
54666;BME280;40566;50.006;36.180;2022-12-10T23:00:13;99101.72;;;7.34;86.93
54666;BME280;40566;50.006;36.180;2022-12-10T23:05:16;99100.09;;;7.32;86.92
54666;BME280;40566;50.006;36.180;2022-12-10T23:10:16;99100.09;;;7.32;86.86
54666;BME280;40566;50.006;36.180;2022-12-10T23:15:17;99109.56;;;7.30;86.91
54666;BME280;40566;50.006;36.180;2022-12-10T23:20:18;99103.56;;;7.31;87.07
54666;BME280;40566;50.006;36.180;2022-12-10T23:25:19;99109.53;;;7.31;86.99
54666;BME280;40566;50.006;36.180;2022-12-10T23:30:19;99116.44;;;7.31;87.08
54666;BME280;40566;50.006;36.180;2022-12-10T23:35:20;99105.19;;;7.33;86.97
54666;BME280;40566;50.006;36.180;2022-12-10T23:40:20;99117.22;;;7.33;86.99
54666;BME280;40566;50.006;36.180;2022-12-10T23:45:21;99106.94;;;7.33;86.99
54666;BME280;40566;50.006;36.180;2022-12-10T23:50:22;99106.88;;;7.34;86.83
54666;BME280;40566;50.006;36.180;2022-12-10T23:55:23;99097.41;;;7.37;86.78
